Aviation Digital Data Service (ADDS)

Output produced by METARs form (0219 UTC 05 August 2015)
found at http://aviationweather.gov/adds/metars/
 
KILM 042320Z 0500/0524 20005KT P6SM SCT015 
     FM051300 24010KT P6SM SKC